sensor_id;sensor_type;location;lat;lon;timestamp;P1;durP1;ratioP1;P2;durP2;ratioP2
17953;SDS011;9102;53.548;9.926;2023-07-30T00:01:51;9.48;;;6.25;;
17953;SDS011;9102;53.548;9.926;2023-07-30T00:04:19;10.95;;;7.85;;
17953;SDS011;9102;53.548;9.926;2023-07-30T00:06:46;11.30;;;8.35;;
17953;SDS011;9102;53.548;9.926;2023-07-30T00:09:12;9.93;;;7.55;;
17953;SDS011;9102;53.548;9.926;2023-07-30T00:11:39;9.15;;;5.70;;
17953;SDS011;9102;53.548;9.926;2023-07-30T00:14:06;7.60;;;5.53;;
17953;SDS011;9102;53.548;9.926;2023-07-30T00:16:33;7.68;;;4.80;;
17953;SDS011;9102;53.548;9.926;2023-07-30T00:19:00;6.40;;;5.10;;
17953;SDS011;9102;53.548;9.926;2023-07-30T00:21:28;6.07;;;4.55;;
17953;SDS011;9102;53.548;9.926;2023-07-30T00:23:54;7.40;;;5.43;;
17953;SDS011;9102;53.548;9.926;2023-07-30T00:26:22;8.07;;;5.05;;
17953;SDS011;9102;53.548;9.926;2023-07-30T00:28:51;6.15;;;4.70;;
17953;SDS011;9102;53.548;9.926;2023-07-30T00:31:18;6.25;;;4.43;;
17953;SDS011;9102;53.548;9.926;2023-07-30T00:33:44;6.25;;;4.25;;
17953;SDS011;9102;53.548;9.926;2023-07-30T00:36:11;7.07;;;5.22;;
17953;SDS011;9102;53.548;9.926;2023-07-30T00:38:39;6.97;;;5.30;;
17953;SDS011;9102;53.548;9.926;2023-07-30T00:41:06;9.48;;;6.20;;
17953;SDS011;9102;53.548;9.926;2023-07-30T00:43:33;12.27;;;7.00;;
17953;SDS011;9102;53.548;9.926;2023-07-30T00:46:00;8.88;;;6.35;;
17953;SDS011;9102;53.548;9.926;2023-07-30T00:48:27;10.13;;;7.03;;
17953;SDS011;9102;53.548;9.926;2023-07-30T00:50:53;10.20;;;6.63;;
17953;SDS011;9102;53.548;9.926;2023-07-30T00:53:21;9.23;;;6.25;;
17953;SDS011;9102;53.548;9.926;2023-07-30T00:55:51;11.50;;;6.60;;
17953;SDS011;9102;53.548;9.926;2023-07-30T00:58:18;9.30;;;6.55;;
17953;SDS011;9102;53.548;9.926;2023-07-30T01:00:46;7.93;;;6.22;;
17953;SDS011;9102;53.548;9.926;2023-07-30T01:03:13;9.63;;;7.20;;
17953;SDS011;9102;53.548;9.926;2023-07-30T01:05:40;9.77;;;8.38;;
17953;SDS011;9102;53.548;9.926;2023-07-30T01:08:07;13.95;;;8.95;;
17953;SDS011;9102;53.548;9.926;2023-07-30T01:10:33;17.90;;;11.88;;
17953;SDS011;9102;53.548;9.926;2023-07-30T01:13:02;13.57;;;10.73;;
17953;SDS011;9102;53.548;9.926;2023-07-30T01:15:30;15.68;;;9.50;;
17953;SDS011;9102;53.548;9.926;2023-07-30T01:17:58;12.07;;;9.80;;
17953;SDS011;9102;53.548;9.926;2023-07-30T01:20:27;14.35;;;9.15;;
17953;SDS011;9102;53.548;9.926;2023-07-30T01:22:57;17.17;;;9.55;;
17953;SDS011;9102;53.548;9.926;2023-07-30T01:25:24;15.88;;;11.13;;
17953;SDS011;9102;53.548;9.926;2023-07-30T01:27:54;15.30;;;11.13;;
17953;SDS011;9102;53.548;9.926;2023-07-30T01:30:25;16.50;;;10.73;;
17953;SDS011;9102;53.548;9.926;2023-07-30T01:32:55;18.38;;;11.63;;
17953;SDS011;9102;53.548;9.926;2023-07-30T01:35:27;15.52;;;12.38;;
17953;SDS011;9102;53.548;9.926;2023-07-30T01:37:55;14.18;;;11.23;;
17953;SDS011;9102;53.548;9.926;2023-07-30T01:40:23;19.80;;;12.55;;
17953;SDS011;9102;53.548;9.926;2023-07-30T01:42:50;16.98;;;11.38;;
17953;SDS011;9102;53.548;9.926;2023-07-30T01:45:17;16.98;;;11.02;;
17953;SDS011;9102;53.548;9.926;2023-07-30T01:47:44;14.70;;;11.40;;
17953;SDS011;9102;53.548;9.926;2023-07-30T01:50:11;15.80;;;11.43;;
17953;SDS011;9102;53.548;9.926;2023-07-30T01:52:38;20.00;;;11.30;;
17953;SDS011;9102;53.548;9.926;2023-07-30T01:55:05;17.45;;;11.98;;
17953;SDS011;9102;53.548;9.926;2023-07-30T01:57:34;16.85;;;11.75;;
17953;SDS011;9102;53.548;9.926;2023-07-30T02:00:00;16.67;;;11.23;;
17953;SDS011;9102;53.548;9.926;2023-07-30T02:02:28;19.42;;;11.57;;
17953;SDS011;9102;53.548;9.926;2023-07-30T02:04:55;16.25;;;11.55;;
17953;SDS011;9102;53.548;9.926;2023-07-30T02:07:21;18.08;;;11.50;;
17953;SDS011;9102;53.548;9.926;2023-07-30T02:09:48;16.75;;;12.23;;
17953;SDS011;9102;53.548;9.926;2023-07-30T02:12:15;14.93;;;11.27;;
17953;SDS011;9102;53.548;9.926;2023-07-30T02:14:43;16.80;;;10.43;;
17953;SDS011;9102;53.548;9.926;2023-07-30T02:17:10;16.10;;;11.02;;
17953;SDS011;9102;53.548;9.926;2023-07-30T02:19:36;20.17;;;12.07;;
17953;SDS011;9102;53.548;9.926;2023-07-30T02:22:03;16.95;;;11.57;;
17953;SDS011;9102;53.548;9.926;2023-07-30T02:24:30;19.83;;;12.30;;
17953;SDS011;9102;53.548;9.926;2023-07-30T02:26:57;21.48;;;12.68;;
17953;SDS011;9102;53.548;9.926;2023-07-30T02:29:24;18.48;;;12.07;;
17953;SDS011;9102;53.548;9.926;2023-07-30T02:31:52;20.10;;;13.10;;
17953;SDS011;9102;53.548;9.926;2023-07-30T02:34:19;17.88;;;12.90;;
17953;SDS011;9102;53.548;9.926;2023-07-30T02:36:46;15.90;;;11.55;;
17953;SDS011;9102;53.548;9.926;2023-07-30T02:39:12;18.13;;;13.05;;
17953;SDS011;9102;53.548;9.926;2023-07-30T02:41:39;21.48;;;14.35;;
17953;SDS011;9102;53.548;9.926;2023-07-30T02:44:06;20.98;;;15.73;;
17953;SDS011;9102;53.548;9.926;2023-07-30T02:46:33;30.33;;;18.08;;
17953;SDS011;9102;53.548;9.926;2023-07-30T02:49:01;27.33;;;16.77;;
17953;SDS011;9102;53.548;9.926;2023-07-30T02:51:28;23.98;;;15.13;;
17953;SDS011;9102;53.548;9.926;2023-07-30T02:53:56;19.45;;;13.82;;
17953;SDS011;9102;53.548;9.926;2023-07-30T02:56:24;20.52;;;13.73;;
17953;SDS011;9102;53.548;9.926;2023-07-30T02:58:51;26.13;;;15.82;;
17953;SDS011;9102;53.548;9.926;2023-07-30T03:01:18;24.17;;;15.98;;
17953;SDS011;9102;53.548;9.926;2023-07-30T03:03:44;21.48;;;14.50;;
17953;SDS011;9102;53.548;9.926;2023-07-30T03:06:12;23.70;;;15.85;;
17953;SDS011;9102;53.548;9.926;2023-07-30T03:08:41;24.17;;;15.80;;
17953;SDS011;9102;53.548;9.926;2023-07-30T03:11:08;23.23;;;15.02;;
17953;SDS011;9102;53.548;9.926;2023-07-30T03:13:35;28.17;;;16.30;;
17953;SDS011;9102;53.548;9.926;2023-07-30T03:16:02;26.48;;;16.25;;
17953;SDS011;9102;53.548;9.926;2023-07-30T03:18:29;26.17;;;14.40;;
17953;SDS011;9102;53.548;9.926;2023-07-30T03:20:57;24.20;;;15.57;;
17953;SDS011;9102;53.548;9.926;2023-07-30T03:23:26;23.67;;;14.98;;
17953;SDS011;9102;53.548;9.926;2023-07-30T03:25:53;30.92;;;18.45;;
17953;SDS011;9102;53.548;9.926;2023-07-30T03:28:20;22.77;;;14.95;;
17953;SDS011;9102;53.548;9.926;2023-07-30T03:30:46;22.45;;;14.63;;
17953;SDS011;9102;53.548;9.926;2023-07-30T03:33:13;27.92;;;15.48;;
17953;SDS011;9102;53.548;9.926;2023-07-30T03:35:40;28.58;;;16.13;;
17953;SDS011;9102;53.548;9.926;2023-07-30T03:38:07;22.42;;;15.13;;
17953;SDS011;9102;53.548;9.926;2023-07-30T03:40:35;26.98;;;16.73;;
17953;SDS011;9102;53.548;9.926;2023-07-30T03:43:02;33.00;;;18.42;;
17953;SDS011;9102;53.548;9.926;2023-07-30T03:45:29;26.10;;;16.45;;
17953;SDS011;9102;53.548;9.926;2023-07-30T03:47:56;32.30;;;18.23;;
17953;SDS011;9102;53.548;9.926;2023-07-30T03:50:22;26.55;;;16.42;;
17953;SDS011;9102;53.548;9.926;2023-07-30T03:52:49;34.67;;;18.38;;
17953;SDS011;9102;53.548;9.926;2023-07-30T03:55:16;24.98;;;15.68;;
17953;SDS011;9102;53.548;9.926;2023-07-30T03:57:44;31.95;;;18.15;;
17953;SDS011;9102;53.548;9.926;2023-07-30T04:00:11;30.40;;;16.58;;
17953;SDS011;9102;53.548;9.926;2023-07-30T04:02:38;26.70;;;15.88;;
17953;SDS011;9102;53.548;9.926;2023-07-30T04:05:05;35.60;;;17.60;;
17953;SDS011;9102;53.548;9.926;2023-07-30T04:07:32;25.05;;;14.85;;
17953;SDS011;9102;53.548;9.926;2023-07-30T04:09:58;24.17;;;14.82;;
17953;SDS011;9102;53.548;9.926;2023-07-30T04:12:25;23.83;;;15.82;;
17953;SDS011;9102;53.548;9.926;2023-07-30T04:14:53;31.67;;;18.08;;
17953;SDS011;9102;53.548;9.926;2023-07-30T04:17:20;38.03;;;18.38;;
17953;SDS011;9102;53.548;9.926;2023-07-30T04:19:47;32.92;;;17.23;;
17953;SDS011;9102;53.548;9.926;2023-07-30T04:22:13;27.25;;;15.20;;
17953;SDS011;9102;53.548;9.926;2023-07-30T04:24:40;27.80;;;16.75;;
17953;SDS011;9102;53.548;9.926;2023-07-30T04:27:07;29.83;;;15.65;;
17953;SDS011;9102;53.548;9.926;2023-07-30T04:29:34;29.67;;;15.20;;
17953;SDS011;9102;53.548;9.926;2023-07-30T04:32:02;33.33;;;15.43;;
17953;SDS011;9102;53.548;9.926;2023-07-30T04:34:29;35.05;;;15.50;;
17953;SDS011;9102;53.548;9.926;2023-07-30T04:36:56;26.27;;;13.63;;
17953;SDS011;9102;53.548;9.926;2023-07-30T04:39:23;23.30;;;14.75;;
17953;SDS011;9102;53.548;9.926;2023-07-30T04:41:50;26.23;;;13.00;;
17953;SDS011;9102;53.548;9.926;2023-07-30T04:44:16;36.38;;;15.38;;
17953;SDS011;9102;53.548;9.926;2023-07-30T04:46:43;25.33;;;14.25;;
17953;SDS011;9102;53.548;9.926;2023-07-30T04:49:11;22.98;;;12.85;;
17953;SDS011;9102;53.548;9.926;2023-07-30T04:51:38;29.00;;;13.60;;
17953;SDS011;9102;53.548;9.926;2023-07-30T04:54:05;31.42;;;14.48;;
17953;SDS011;9102;53.548;9.926;2023-07-30T04:56:32;27.45;;;13.15;;
17953;SDS011;9102;53.548;9.926;2023-07-30T04:58:59;26.88;;;14.52;;
17953;SDS011;9102;53.548;9.926;2023-07-30T05:01:26;25.42;;;14.00;;
17953;SDS011;9102;53.548;9.926;2023-07-30T05:03:53;29.48;;;14.55;;
17953;SDS011;9102;53.548;9.926;2023-07-30T05:06:21;30.30;;;14.13;;
17953;SDS011;9102;53.548;9.926;2023-07-30T05:08:48;30.45;;;14.40;;
17953;SDS011;9102;53.548;9.926;2023-07-30T05:11:15;26.08;;;12.07;;
17953;SDS011;9102;53.548;9.926;2023-07-30T05:13:42;24.40;;;13.52;;
17953;SDS011;9102;53.548;9.926;2023-07-30T05:16:09;37.03;;;14.35;;
17953;SDS011;9102;53.548;9.926;2023-07-30T05:18:35;31.08;;;13.55;;
17953;SDS011;9102;53.548;9.926;2023-07-30T05:21:02;24.25;;;12.20;;
17953;SDS011;9102;53.548;9.926;2023-07-30T05:23:30;30.58;;;13.20;;
17953;SDS011;9102;53.548;9.926;2023-07-30T05:25:57;23.58;;;12.02;;
17953;SDS011;9102;53.548;9.926;2023-07-30T05:28:24;23.50;;;11.27;;
17953;SDS011;9102;53.548;9.926;2023-07-30T05:30:51;20.88;;;11.27;;
17953;SDS011;9102;53.548;9.926;2023-07-30T05:33:17;22.92;;;12.60;;
17953;SDS011;9102;53.548;9.926;2023-07-30T05:35:44;24.15;;;12.50;;
17953;SDS011;9102;53.548;9.926;2023-07-30T05:38:13;22.48;;;11.90;;
17953;SDS011;9102;53.548;9.926;2023-07-30T05:40:41;20.10;;;11.13;;
17953;SDS011;9102;53.548;9.926;2023-07-30T05:43:08;31.98;;;13.40;;
17953;SDS011;9102;53.548;9.926;2023-07-30T05:45:34;18.85;;;11.88;;
17953;SDS011;9102;53.548;9.926;2023-07-30T05:48:01;23.65;;;12.18;;
17953;SDS011;9102;53.548;9.926;2023-07-30T05:50:28;26.25;;;11.93;;
17953;SDS011;9102;53.548;9.926;2023-07-30T05:52:55;25.05;;;12.52;;
17953;SDS011;9102;53.548;9.926;2023-07-30T05:55:22;29.10;;;12.23;;
17953;SDS011;9102;53.548;9.926;2023-07-30T05:57:50;23.95;;;11.43;;
17953;SDS011;9102;53.548;9.926;2023-07-30T06:00:18;23.20;;;11.23;;
17953;SDS011;9102;53.548;9.926;2023-07-30T06:02:45;21.70;;;10.88;;
17953;SDS011;9102;53.548;9.926;2023-07-30T06:05:12;24.63;;;10.75;;
17953;SDS011;9102;53.548;9.926;2023-07-30T06:07:39;20.63;;;10.48;;
17953;SDS011;9102;53.548;9.926;2023-07-30T06:10:06;20.45;;;9.93;;
17953;SDS011;9102;53.548;9.926;2023-07-30T06:12:33;28.52;;;11.30;;
17953;SDS011;9102;53.548;9.926;2023-07-30T06:15:01;18.30;;;10.35;;
17953;SDS011;9102;53.548;9.926;2023-07-30T06:17:28;20.50;;;9.10;;
17953;SDS011;9102;53.548;9.926;2023-07-30T06:19:55;22.23;;;10.05;;
17953;SDS011;9102;53.548;9.926;2023-07-30T06:22:22;26.00;;;10.18;;
17953;SDS011;9102;53.548;9.926;2023-07-30T06:24:49;20.33;;;9.30;;
17953;SDS011;9102;53.548;9.926;2023-07-30T06:27:16;18.98;;;9.93;;
17953;SDS011;9102;53.548;9.926;2023-07-30T06:29:42;22.65;;;9.95;;
17953;SDS011;9102;53.548;9.926;2023-07-30T06:32:11;24.02;;;9.45;;
17953;SDS011;9102;53.548;9.926;2023-07-30T06:34:37;22.58;;;9.52;;
17953;SDS011;9102;53.548;9.926;2023-07-30T06:37:04;19.02;;;9.07;;
17953;SDS011;9102;53.548;9.926;2023-07-30T06:39:33;15.65;;;9.23;;
17953;SDS011;9102;53.548;9.926;2023-07-30T06:42:00;18.73;;;8.85;;
17953;SDS011;9102;53.548;9.926;2023-07-30T06:44:27;20.00;;;9.50;;
17953;SDS011;9102;53.548;9.926;2023-07-30T06:46:54;19.55;;;8.75;;
17953;SDS011;9102;53.548;9.926;2023-07-30T06:49:23;20.95;;;8.77;;
17953;SDS011;9102;53.548;9.926;2023-07-30T06:51:51;17.25;;;9.05;;
17953;SDS011;9102;53.548;9.926;2023-07-30T06:54:18;23.52;;;9.23;;
17953;SDS011;9102;53.548;9.926;2023-07-30T06:56:46;15.57;;;8.40;;
17953;SDS011;9102;53.548;9.926;2023-07-30T06:59:13;19.42;;;8.50;;
17953;SDS011;9102;53.548;9.926;2023-07-30T07:01:40;18.08;;;8.30;;
17953;SDS011;9102;53.548;9.926;2023-07-30T07:04:07;21.48;;;7.80;;
17953;SDS011;9102;53.548;9.926;2023-07-30T07:06:35;16.58;;;7.95;;
17953;SDS011;9102;53.548;9.926;2023-07-30T07:09:02;21.60;;;8.68;;
17953;SDS011;9102;53.548;9.926;2023-07-30T07:11:29;17.58;;;7.68;;
17953;SDS011;9102;53.548;9.926;2023-07-30T07:13:55;18.02;;;7.60;;
17953;SDS011;9102;53.548;9.926;2023-07-30T07:16:22;12.68;;;6.35;;
17953;SDS011;9102;53.548;9.926;2023-07-30T07:18:49;15.65;;;7.38;;
17953;SDS011;9102;53.548;9.926;2023-07-30T07:21:16;20.00;;;7.60;;
17953;SDS011;9102;53.548;9.926;2023-07-30T07:23:44;18.52;;;7.75;;
17953;SDS011;9102;53.548;9.926;2023-07-30T07:26:11;24.48;;;8.40;;
17953;SDS011;9102;53.548;9.926;2023-07-30T07:28:37;21.70;;;6.45;;
17953;SDS011;9102;53.548;9.926;2023-07-30T07:31:04;19.92;;;7.00;;
17953;SDS011;9102;53.548;9.926;2023-07-30T07:33:31;13.15;;;6.80;;
17953;SDS011;9102;53.548;9.926;2023-07-30T07:36:04;15.40;;;6.28;;
17953;SDS011;9102;53.548;9.926;2023-07-30T07:38:32;16.33;;;5.90;;
17953;SDS011;9102;53.548;9.926;2023-07-30T07:41:00;12.65;;;5.88;;
17953;SDS011;9102;53.548;9.926;2023-07-30T07:43:27;17.55;;;6.50;;
17953;SDS011;9102;53.548;9.926;2023-07-30T07:45:54;18.25;;;5.63;;
17953;SDS011;9102;53.548;9.926;2023-07-30T07:48:21;15.90;;;5.70;;
17953;SDS011;9102;53.548;9.926;2023-07-30T07:50:48;21.13;;;6.07;;
17953;SDS011;9102;53.548;9.926;2023-07-30T07:53:15;19.42;;;5.20;;
17953;SDS011;9102;53.548;9.926;2023-07-30T07:55:42;20.92;;;6.40;;
17953;SDS011;9102;53.548;9.926;2023-07-30T07:58:10;20.38;;;7.38;;
17953;SDS011;9102;53.548;9.926;2023-07-30T08:00:37;13.95;;;5.78;;
17953;SDS011;9102;53.548;9.926;2023-07-30T08:03:03;16.77;;;5.88;;
17953;SDS011;9102;53.548;9.926;2023-07-30T08:05:30;10.77;;;4.97;;
17953;SDS011;9102;53.548;9.926;2023-07-30T08:07:57;15.18;;;6.47;;
17953;SDS011;9102;53.548;9.926;2023-07-30T08:10:24;14.18;;;6.40;;
17953;SDS011;9102;53.548;9.926;2023-07-30T08:12:50;13.73;;;6.20;;
17953;SDS011;9102;53.548;9.926;2023-07-30T08:15:19;17.42;;;5.93;;
17953;SDS011;9102;53.548;9.926;2023-07-30T08:17:46;18.05;;;6.20;;
17953;SDS011;9102;53.548;9.926;2023-07-30T08:20:13;16.60;;;6.40;;
17953;SDS011;9102;53.548;9.926;2023-07-30T08:22:39;15.63;;;5.43;;
17953;SDS011;9102;53.548;9.926;2023-07-30T08:25:06;19.48;;;5.10;;
17953;SDS011;9102;53.548;9.926;2023-07-30T08:27:33;20.73;;;5.28;;
17953;SDS011;9102;53.548;9.926;2023-07-30T08:30:00;21.95;;;4.72;;
17953;SDS011;9102;53.548;9.926;2023-07-30T08:32:28;16.95;;;4.50;;
17953;SDS011;9102;53.548;9.926;2023-07-30T08:34:55;13.73;;;3.97;;
17953;SDS011;9102;53.548;9.926;2023-07-30T08:37:22;17.08;;;4.72;;
17953;SDS011;9102;53.548;9.926;2023-07-30T08:39:49;18.20;;;4.18;;
17953;SDS011;9102;53.548;9.926;2023-07-30T08:42:16;14.40;;;3.63;;
17953;SDS011;9102;53.548;9.926;2023-07-30T08:44:42;10.90;;;3.80;;
17953;SDS011;9102;53.548;9.926;2023-07-30T08:47:09;15.65;;;4.43;;
17953;SDS011;9102;53.548;9.926;2023-07-30T08:49:37;17.48;;;4.10;;
17953;SDS011;9102;53.548;9.926;2023-07-30T08:52:05;13.80;;;3.67;;
17953;SDS011;9102;53.548;9.926;2023-07-30T08:54:34;17.95;;;4.40;;
17953;SDS011;9102;53.548;9.926;2023-07-30T08:57:03;17.55;;;4.30;;
17953;SDS011;9102;53.548;9.926;2023-07-30T08:59:31;14.73;;;4.70;;
17953;SDS011;9102;53.548;9.926;2023-07-30T09:02:03;13.63;;;4.25;;
17953;SDS011;9102;53.548;9.926;2023-07-30T09:04:35;12.23;;;3.33;;
17953;SDS011;9102;53.548;9.926;2023-07-30T09:07:08;16.08;;;4.03;;
17953;SDS011;9102;53.548;9.926;2023-07-30T09:09:35;15.20;;;3.95;;
17953;SDS011;9102;53.548;9.926;2023-07-30T09:12:03;13.05;;;3.63;;
17953;SDS011;9102;53.548;9.926;2023-07-30T09:14:30;14.07;;;3.47;;
17953;SDS011;9102;53.548;9.926;2023-07-30T09:16:57;11.05;;;3.00;;
17953;SDS011;9102;53.548;9.926;2023-07-30T09:19:24;11.02;;;3.30;;
17953;SDS011;9102;53.548;9.926;2023-07-30T09:21:56;10.77;;;3.05;;
17953;SDS011;9102;53.548;9.926;2023-07-30T09:24:23;11.68;;;3.10;;
17953;SDS011;9102;53.548;9.926;2023-07-30T09:26:50;9.38;;;3.03;;
17953;SDS011;9102;53.548;9.926;2023-07-30T09:29:17;9.82;;;3.28;;
17953;SDS011;9102;53.548;9.926;2023-07-30T09:31:48;11.90;;;2.92;;
17953;SDS011;9102;53.548;9.926;2023-07-30T09:34:19;17.17;;;3.53;;
17953;SDS011;9102;53.548;9.926;2023-07-30T09:36:46;13.55;;;3.60;;
17953;SDS011;9102;53.548;9.926;2023-07-30T09:39:18;13.60;;;3.28;;
17953;SDS011;9102;53.548;9.926;2023-07-30T09:41:46;10.38;;;2.83;;
17953;SDS011;9102;53.548;9.926;2023-07-30T09:44:15;9.77;;;3.35;;
17953;SDS011;9102;53.548;9.926;2023-07-30T09:46:43;11.57;;;3.28;;
17953;SDS011;9102;53.548;9.926;2023-07-30T09:49:11;13.65;;;3.28;;
17953;SDS011;9102;53.548;9.926;2023-07-30T09:51:38;11.25;;;3.10;;
17953;SDS011;9102;53.548;9.926;2023-07-30T09:54:06;12.05;;;3.33;;
17953;SDS011;9102;53.548;9.926;2023-07-30T09:56:35;11.65;;;2.97;;
17953;SDS011;9102;53.548;9.926;2023-07-30T09:59:04;12.98;;;3.03;;
17953;SDS011;9102;53.548;9.926;2023-07-30T10:01:31;11.30;;;3.42;;
17953;SDS011;9102;53.548;9.926;2023-07-30T10:03:59;9.70;;;3.22;;
17953;SDS011;9102;53.548;9.926;2023-07-30T10:06:29;13.85;;;3.70;;
17953;SDS011;9102;53.548;9.926;2023-07-30T10:08:57;7.60;;;2.60;;
17953;SDS011;9102;53.548;9.926;2023-07-30T10:11:26;11.73;;;2.97;;
17953;SDS011;9102;53.548;9.926;2023-07-30T10:13:55;13.55;;;3.13;;
17953;SDS011;9102;53.548;9.926;2023-07-30T10:16:25;13.13;;;2.92;;
17953;SDS011;9102;53.548;9.926;2023-07-30T10:18:55;11.65;;;3.10;;
17953;SDS011;9102;53.548;9.926;2023-07-30T10:21:23;9.23;;;2.88;;
17953;SDS011;9102;53.548;9.926;2023-07-30T10:23:57;10.20;;;2.83;;
17953;SDS011;9102;53.548;9.926;2023-07-30T10:26:26;11.25;;;2.78;;
17953;SDS011;9102;53.548;9.926;2023-07-30T10:31:41;11.13;;;3.05;;
17953;SDS011;9102;53.548;9.926;2023-07-30T10:34:10;10.07;;;2.72;;
17953;SDS011;9102;53.548;9.926;2023-07-30T10:36:40;13.57;;;2.90;;
17953;SDS011;9102;53.548;9.926;2023-07-30T10:39:12;10.27;;;2.80;;
17953;SDS011;9102;53.548;9.926;2023-07-30T10:41:42;11.27;;;2.75;;
17953;SDS011;9102;53.548;9.926;2023-07-30T10:44:18;13.52;;;3.20;;
17953;SDS011;9102;53.548;9.926;2023-07-30T10:46:48;8.75;;;2.25;;
17953;SDS011;9102;53.548;9.926;2023-07-30T10:49:14;10.95;;;2.65;;
17953;SDS011;9102;53.548;9.926;2023-07-30T10:51:41;13.45;;;2.78;;
17953;SDS011;9102;53.548;9.926;2023-07-30T10:54:08;5.85;;;2.60;;
17953;SDS011;9102;53.548;9.926;2023-07-30T10:56:35;10.55;;;2.83;;
17953;SDS011;9102;53.548;9.926;2023-07-30T10:59:03;6.97;;;2.60;;
17953;SDS011;9102;53.548;9.926;2023-07-30T11:01:35;9.40;;;2.35;;
17953;SDS011;9102;53.548;9.926;2023-07-30T11:04:05;9.25;;;2.20;;
17953;SDS011;9102;53.548;9.926;2023-07-30T11:06:32;10.13;;;2.60;;
17953;SDS011;9102;53.548;9.926;2023-07-30T11:08:59;6.75;;;2.10;;
17953;SDS011;9102;53.548;9.926;2023-07-30T11:11:26;9.13;;;2.58;;
17953;SDS011;9102;53.548;9.926;2023-07-30T11:13:53;5.47;;;2.15;;
17953;SDS011;9102;53.548;9.926;2023-07-30T11:16:20;10.52;;;2.10;;
17953;SDS011;9102;53.548;9.926;2023-07-30T11:18:49;10.27;;;2.67;;
17953;SDS011;9102;53.548;9.926;2023-07-30T11:21:16;8.40;;;2.80;;
17953;SDS011;9102;53.548;9.926;2023-07-30T11:23:45;10.80;;;2.40;;
17953;SDS011;9102;53.548;9.926;2023-07-30T11:26:16;8.38;;;2.67;;
17953;SDS011;9102;53.548;9.926;2023-07-30T11:28:45;7.43;;;2.63;;
17953;SDS011;9102;53.548;9.926;2023-07-30T11:31:13;10.77;;;2.30;;
17953;SDS011;9102;53.548;9.926;2023-07-30T11:33:43;7.53;;;2.03;;
17953;SDS011;9102;53.548;9.926;2023-07-30T11:36:14;5.97;;;1.92;;
17953;SDS011;9102;53.548;9.926;2023-07-30T11:38:43;7.50;;;2.30;;
17953;SDS011;9102;53.548;9.926;2023-07-30T11:41:12;5.15;;;2.00;;
17953;SDS011;9102;53.548;9.926;2023-07-30T11:43:40;9.40;;;2.45;;
17953;SDS011;9102;53.548;9.926;2023-07-30T11:46:09;10.35;;;2.75;;
17953;SDS011;9102;53.548;9.926;2023-07-30T11:48:38;7.38;;;1.98;;
17953;SDS011;9102;53.548;9.926;2023-07-30T11:51:05;4.82;;;1.85;;
17953;SDS011;9102;53.548;9.926;2023-07-30T11:53:47;7.95;;;1.95;;
17953;SDS011;9102;53.548;9.926;2023-07-30T11:56:16;7.38;;;1.85;;
17953;SDS011;9102;53.548;9.926;2023-07-30T11:58:44;9.80;;;1.95;;
17953;SDS011;9102;53.548;9.926;2023-07-30T12:01:13;8.40;;;2.15;;
17953;SDS011;9102;53.548;9.926;2023-07-30T12:03:40;5.32;;;1.75;;
17953;SDS011;9102;53.548;9.926;2023-07-30T12:06:09;9.43;;;2.15;;
17953;SDS011;9102;53.548;9.926;2023-07-30T12:08:36;7.97;;;1.95;;
17953;SDS011;9102;53.548;9.926;2023-07-30T12:11:05;6.70;;;2.15;;
17953;SDS011;9102;53.548;9.926;2023-07-30T12:13:33;8.10;;;2.10;;
17953;SDS011;9102;53.548;9.926;2023-07-30T12:16:00;6.05;;;2.13;;
17953;SDS011;9102;53.548;9.926;2023-07-30T12:18:26;7.05;;;1.92;;
17953;SDS011;9102;53.548;9.926;2023-07-30T12:20:54;9.23;;;2.13;;
17953;SDS011;9102;53.548;9.926;2023-07-30T12:23:23;7.65;;;2.33;;
17953;SDS011;9102;53.548;9.926;2023-07-30T12:25:50;8.07;;;2.33;;
17953;SDS011;9102;53.548;9.926;2023-07-30T12:28:19;8.70;;;2.05;;
17953;SDS011;9102;53.548;9.926;2023-07-30T12:30:46;8.40;;;2.22;;
17953;SDS011;9102;53.548;9.926;2023-07-30T12:33:13;5.18;;;2.63;;
17953;SDS011;9102;53.548;9.926;2023-07-30T12:35:40;5.85;;;1.70;;
17953;SDS011;9102;53.548;9.926;2023-07-30T12:38:07;5.82;;;1.60;;
17953;SDS011;9102;53.548;9.926;2023-07-30T12:40:33;5.80;;;1.83;;
17953;SDS011;9102;53.548;9.926;2023-07-30T12:43:01;9.70;;;3.42;;
17953;SDS011;9102;53.548;9.926;2023-07-30T12:45:29;7.05;;;1.98;;
17953;SDS011;9102;53.548;9.926;2023-07-30T12:47:58;10.20;;;1.85;;
17953;SDS011;9102;53.548;9.926;2023-07-30T12:50:25;7.10;;;1.60;;
17953;SDS011;9102;53.548;9.926;2023-07-30T12:52:52;7.88;;;2.33;;
17953;SDS011;9102;53.548;9.926;2023-07-30T12:55:18;6.93;;;2.38;;
17953;SDS011;9102;53.548;9.926;2023-07-30T12:57:45;7.10;;;1.80;;
17953;SDS011;9102;53.548;9.926;2023-07-30T13:00:12;4.82;;;1.92;;
17953;SDS011;9102;53.548;9.926;2023-07-30T13:02:41;9.02;;;2.47;;
17953;SDS011;9102;53.548;9.926;2023-07-30T13:05:08;5.55;;;2.30;;
17953;SDS011;9102;53.548;9.926;2023-07-30T13:07:35;7.32;;;1.67;;
17953;SDS011;9102;53.548;9.926;2023-07-30T13:10:02;10.55;;;2.53;;
17953;SDS011;9102;53.548;9.926;2023-07-30T13:12:30;9.18;;;2.00;;
17953;SDS011;9102;53.548;9.926;2023-07-30T13:14:57;11.35;;;2.28;;
17953;SDS011;9102;53.548;9.926;2023-07-30T13:17:24;9.05;;;1.90;;
17953;SDS011;9102;53.548;9.926;2023-07-30T13:19:52;8.27;;;2.28;;
17953;SDS011;9102;53.548;9.926;2023-07-30T13:22:19;7.15;;;2.08;;
17953;SDS011;9102;53.548;9.926;2023-07-30T13:24:46;8.57;;;2.40;;
17953;SDS011;9102;53.548;9.926;2023-07-30T13:27:13;7.57;;;2.92;;
17953;SDS011;9102;53.548;9.926;2023-07-30T13:29:40;8.20;;;2.03;;
17953;SDS011;9102;53.548;9.926;2023-07-30T13:32:07;5.80;;;2.53;;
17953;SDS011;9102;53.548;9.926;2023-07-30T13:34:33;6.07;;;2.20;;
17953;SDS011;9102;53.548;9.926;2023-07-30T13:37:02;5.28;;;2.20;;
17953;SDS011;9102;53.548;9.926;2023-07-30T13:39:29;6.15;;;2.80;;
17953;SDS011;9102;53.548;9.926;2023-07-30T13:41:55;5.22;;;2.35;;
17953;SDS011;9102;53.548;9.926;2023-07-30T13:44:22;13.65;;;4.65;;
17953;SDS011;9102;53.548;9.926;2023-07-30T13:46:49;10.20;;;3.47;;
17953;SDS011;9102;53.548;9.926;2023-07-30T13:49:16;8.50;;;2.35;;
17953;SDS011;9102;53.548;9.926;2023-07-30T13:51:43;10.40;;;3.45;;
17953;SDS011;9102;53.548;9.926;2023-07-30T13:54:11;6.45;;;2.40;;
17953;SDS011;9102;53.548;9.926;2023-07-30T13:56:38;8.65;;;2.55;;
17953;SDS011;9102;53.548;9.926;2023-07-30T13:59:05;8.10;;;2.40;;
17953;SDS011;9102;53.548;9.926;2023-07-30T14:01:32;7.40;;;2.22;;
17953;SDS011;9102;53.548;9.926;2023-07-30T14:03:58;8.52;;;2.10;;
17953;SDS011;9102;53.548;9.926;2023-07-30T14:06:25;8.50;;;2.17;;
17953;SDS011;9102;53.548;9.926;2023-07-30T14:08:52;6.45;;;2.25;;
17953;SDS011;9102;53.548;9.926;2023-07-30T14:11:20;4.43;;;1.95;;
17953;SDS011;9102;53.548;9.926;2023-07-30T14:13:47;6.47;;;2.10;;
17953;SDS011;9102;53.548;9.926;2023-07-30T14:16:14;4.65;;;1.65;;
17953;SDS011;9102;53.548;9.926;2023-07-30T14:18:40;6.68;;;2.33;;
17953;SDS011;9102;53.548;9.926;2023-07-30T14:21:08;8.30;;;2.20;;
17953;SDS011;9102;53.548;9.926;2023-07-30T14:23:36;6.82;;;1.35;;
17953;SDS011;9102;53.548;9.926;2023-07-30T14:26:04;6.70;;;1.85;;
17953;SDS011;9102;53.548;9.926;2023-07-30T14:28:33;4.63;;;1.40;;
17953;SDS011;9102;53.548;9.926;2023-07-30T14:30:59;6.78;;;2.00;;
17953;SDS011;9102;53.548;9.926;2023-07-30T14:33:26;5.80;;;2.30;;
17953;SDS011;9102;53.548;9.926;2023-07-30T14:35:53;6.20;;;2.00;;
17953;SDS011;9102;53.548;9.926;2023-07-30T14:38:20;7.43;;;1.90;;
17953;SDS011;9102;53.548;9.926;2023-07-30T14:40:46;7.85;;;2.35;;
17953;SDS011;9102;53.548;9.926;2023-07-30T14:43:13;4.55;;;1.73;;
17953;SDS011;9102;53.548;9.926;2023-07-30T14:45:41;6.28;;;1.77;;
17953;SDS011;9102;53.548;9.926;2023-07-30T14:48:08;6.18;;;1.98;;
17953;SDS011;9102;53.548;9.926;2023-07-30T14:50:35;4.47;;;2.00;;
17953;SDS011;9102;53.548;9.926;2023-07-30T14:53:02;5.40;;;1.52;;